• Join FlightAware (Why Join?)
  • Login
  • US Flag 
04:17AM EDT


 

Airport Tracker/Info


-or-


 

Live Flight TrackerFlight Track Log ✈ N77SD ✈ 08-May-2013 ✈ KILM - KPGV

Flight Track Log - Related Links

Times and Time Zones

All times are in EDT time to prevent confusion due to time zone crossing. See the N77SD flight status page for this flight to view local times or setup timezone preferences in your user account.

Time Position Orientation Groundspeed Altitude Reporting Facility
EDT Latitude Longitude Course Direction KTS MPH feet Rate Location/Type
08:32AM 34.2606 -77.9817 18° North 168 193 3,900  Level Washington Center
08:33AM 34.3025 -77.9728 10° North 150 173 6,300 2,160 Climbing Washington Center
08:34AM 34.3447 -77.9539 20° North 144 166 8,300 1,920 Climbing Washington Center
08:35AM 34.3889 -77.9350 19° North 151 174 10,200 1,860 Climbing Washington Center
08:36AM 34.4353 -77.9136 21° North 156 180 12,100 1,380 Climbing Washington Center
08:37AM 34.6376 -77.7546 18° North  Level FlightAware Approximate
08:37AM 34.4836 -77.8922 20° North 169 194 13,000  Level Washington Center
08:38AM 34.6993 -77.7295 18° North  Level FlightAware Approximate
08:38AM 34.5508 -77.8639 19° North 209 241 13,000  Level Washington Center
08:39AM 34.6203 -77.8331 20° North 242 278 13,000  Level Washington Center
08:40AM 34.6917 -77.8022 20° North 261 300 13,000  Level Washington Center
08:41AM 34.7614 -77.7689 21° North 266 306 13,000  Level Washington Center
08:42AM 34.8328 -77.7378 20° North 271 312 13,000  Level Washington Center
08:43AM 34.9022 -77.7067 20° North 271 312 13,000  Level Washington Center
08:44AM 34.9694 -77.6728 22° Northeast 271 312 13,000 -420 Level Washington Center
08:45AM 35.0219 -77.6514 18° North 263 303 12,300 -1,020 Descending Washington Center
08:45AM 35.0369 -77.6417 28° Northeast 265 305 12,000 -1,500 Descending Washington Center
08:46AM 35.0578 -77.6322 20° North 262 302 11,400 -1,080 Descending Washington Center
08:46AM 35.1042 -77.6053 25° Northeast 265 305 11,000 -720 Descending Washington Center
08:47AM 35.1294 -77.5958 17° North 256 295 10,700 -1,140 Descending Washington Center
08:47AM 35.1694 -77.5764 22° Northeast 254 292 9,900 -1,380 Descending Washington Center
08:48AM 35.1947 -77.5592 29° Northeast 253 291 9,300 -1,440 Descending Washington Center
08:48AM 35.2283 -77.5372 28° Northeast 254 292 8,500 -1,320 Descending Washington Center
08:49AM 35.2917 -77.5006 25° Northeast 254 292 7,100 -1,500 Descending Washington Center
08:50AM 35.3528 -77.4639 26° Northeast 243 280 5,600 -1,560 Descending Washington Center